Time;durP1;ratioP1;P1;durP2;ratioP2;P2;SDS_P1;SDS_P2;PMS_P1;PMS_P2;Temp;Humidity;BMP_temperature;BMP_pressure;BME280_temperature;BME280_humidity;BME280_pressure;Samples;Min_cycle;Max_cycle;Signal;HPM_P1;HPM_P2
2024/04/11 00:00:53;;;;;;;0.75;0.62;;;;;;;14.88;52.33;100876.38;4405109;32;32658;-81
2024/04/11 00:03:20;;;;;;;0.45;0.40;;;;;;;14.52;53.36;100880.53;4380214;32;33537;-81
2024/04/11 00:05:47;;;;;;;0.50;0.40;;;;;;;14.68;52.91;100877.25;4405353;32;34059;-82
2024/04/11 00:08:13;;;;;;;3.78;2.62;;;;;;;14.67;52.90;100883.47;4391953;32;35653;-82
2024/04/11 00:10:40;;;;;;;0.35;0.35;;;;;;;14.04;54.71;100881.63;4378817;32;33367;-82
2024/04/11 00:13:06;;;;;;;0.10;0.10;;;;;;;14.30;54.10;100882.38;4383516;32;33064;-81
2024/04/11 00:15:33;;;;;;;0.82;0.82;;;;;;;14.14;54.48;100881.25;4392379;32;33843;-81
2024/04/11 00:18:00;;;;;;;0.15;0.15;;;;;;;14.13;54.56;100891.03;4370560;32;34921;-83
2024/04/11 00:20:27;;;;;;;1.35;1.25;;;;;;;14.29;53.96;100883.28;4391766;32;33264;-82
2024/04/11 00:22:54;;;;;;;0.95;0.95;;;;;;;14.24;53.98;100895.88;4405026;32;34181;-82
2024/04/11 00:25:20;;;;;;;1.20;1.10;;;;;;;14.17;54.12;100884.66;4391444;32;34319;-83
2024/04/11 00:27:47;;;;;;;0.47;0.47;;;;;;;14.33;53.63;100892.84;4404711;32;34745;-83
2024/04/11 00:30:13;;;;;;;2.50;0.80;;;;;;;14.43;53.15;100893.31;4407851;32;33551;-82
2024/04/11 00:32:40;;;;;;;0.40;0.32;;;;;;;14.45;52.97;100892.34;4379168;32;32782;-82
2024/04/11 00:35:06;;;;;;;2.03;1.50;;;;;;;14.22;53.88;100892.44;4392072;32;33640;-82
2024/04/11 00:37:33;;;;;;;0.47;0.30;;;;;;;14.37;53.38;100894.44;4398603;32;34432;-83
2024/04/11 00:40:00;;;;;;;1.17;0.73;;;;;;;14.16;53.93;100900.66;4391794;32;35851;-83
2024/04/11 00:42:26;;;;;;;0.62;0.30;;;;;;;14.42;53.25;100894.25;4392454;32;33447;-83
2024/04/11 00:44:53;;;;;;;0.47;0.45;;;;;;;14.07;54.22;100897.44;4404793;32;34386;-82
2024/04/11 00:47:20;;;;;;;0.30;0.30;;;;;;;13.72;55.19;100903.28;4391917;32;34033;-83
2024/04/11 00:49:47;;;;;;;3.67;1.00;;;;;;;13.89;54.60;100900.84;4404877;32;33974;-82
2024/04/11 00:52:15;;;;;;;0.30;0.30;;;;;;;13.96;54.65;100894.37;4379148;32;33729;-83
2024/04/11 00:54:42;;;;;;;0.43;0.43;;;;;;;14.19;53.69;100900.53;4392023;32;34255;-82
2024/04/11 00:57:09;;;;;;;0.30;0.30;;;;;;;13.92;54.84;100908.69;4391328;32;33884;-82
2024/04/11 00:59:38;;;;;;;0.20;0.10;;;;;;;14.18;53.90;100910.28;4391536;32;32793;-82
2024/04/11 01:02:06;;;;;;;1.02;0.98;;;;;;;14.03;54.65;100911.78;4378606;32;32808;-82
2024/04/11 01:04:33;;;;;;;0.28;0.28;;;;;;;13.77;55.20;100922.59;4392608;32;33330;-82
2024/04/11 01:07:17;;;;;;;1.52;1.42;;;;;;;13.87;54.63;100912.47;4392020;32;32763;-82
2024/04/11 01:09:45;;;;;;;3.03;0.70;;;;;;;13.98;54.62;100912.91;4391328;32;33563;-82
2024/04/11 01:12:13;;;;;;;4.78;1.83;;;;;;;14.02;53.97;100910.06;4392991;32;36674;-82
2024/04/11 01:14:41;;;;;;;0.32;0.32;;;;;;;13.92;54.48;100915.81;4403539;32;34392;-83
2024/04/11 01:17:10;;;;;;;1.08;0.77;;;;;;;14.08;53.96;100912.44;4377460;32;34377;-82
2024/04/11 01:19:37;;;;;;;0.10;0.10;;;;;;;13.82;55.07;100920.63;4404049;32;34810;-82
2024/04/11 01:22:03;;;;;;;0.62;0.28;;;;;;;13.91;54.61;100922.91;4391204;32;34740;-82
2024/04/11 01:24:30;;;;;;;0.93;0.93;;;;;;;13.84;55.00;100921.41;4380652;32;34424;-82
2024/04/11 01:26:59;;;;;;;0.70;0.70;;;;;;;13.93;54.88;100921.03;4390303;32;34090;-83
2024/04/11 01:29:26;;;;;;;0.77;0.77;;;;;;;13.95;54.53;100919.19;4377848;32;33107;-82
2024/04/11 01:31:59;;;;;;;0.10;0.10;;;;;;;13.95;54.35;100919.19;4378775;32;34519;-82
2024/04/11 01:34:30;;;;;;;1.65;0.95;;;;;;;13.96;54.70;100926.25;4404190;32;33683;-83
2024/04/11 01:37:00;;;;;;;0.65;0.52;;;;;;;14.18;53.96;100920.91;4390196;32;35701;-83
2024/04/11 01:39:27;;;;;;;1.20;0.88;;;;;;;13.99;54.35;100923.44;4404016;32;34088;-83
2024/04/11 01:41:53;;;;;;;0.30;0.30;;;;;;;13.95;54.62;100932.44;4393337;32;34561;-83
2024/04/11 01:44:24;;;;;;;0.80;0.70;;;;;;;13.93;54.53;100934.31;4393500;32;32497;-83
2024/04/11 01:46:53;;;;;;;0.60;0.60;;;;;;;13.84;54.81;100932.88;4406326;32;35105;-82
2024/04/11 01:49:21;;;;;;;6.07;1.67;;;;;;;13.84;54.82;100934.69;4392661;32;34155;-83
2024/04/11 01:51:48;;;;;;;3.15;0.47;;;;;;;13.84;55.02;100942.63;4393381;32;32312;-83
2024/04/11 01:54:14;;;;;;;4.78;1.08;;;;;;;13.87;54.64;100939.00;4397575;32;33531;-83
2024/04/11 01:56:41;;;;;;;0.68;0.60;;;;;;;13.96;54.58;100936.00;4406378;32;34037;-83
2024/04/11 01:59:08;;;;;;;1.12;1.02;;;;;;;13.82;55.02;100936.53;4406318;32;34034;-83
2024/04/11 02:01:34;;;;;;;0.35;0.35;;;;;;;13.86;54.64;100946.09;4393438;32;33715;-82
2024/04/11 02:04:05;;;;;;;1.60;0.85;;;;;;;13.92;54.62;100940.56;4406155;32;33420;-81
2024/04/11 02:06:36;;;;;;;0.30;0.17;;;;;;;13.71;55.06;100946.69;4393815;32;33836;-81
2024/04/11 02:09:09;;;;;;;0.28;0.28;;;;;;;14.14;54.00;100942.34;4368494;32;33646;-81
2024/04/11 02:11:42;;;;;;;0.15;0.15;;;;;;;13.80;54.68;100949.84;4405524;32;36455;-81
2024/04/11 02:14:10;;;;;;;2.58;0.35;;;;;;;13.75;54.94;100954.47;4381599;32;32757;-81
2024/04/11 02:16:36;;;;;;;0.50;0.40;;;;;;;13.74;55.34;100951.87;4393424;32;34083;-82
2024/04/11 02:19:06;;;;;;;2.62;0.85;;;;;;;13.72;55.10;100948.41;4406190;32;34763;-81
2024/04/11 02:21:34;;;;;;;1.42;1.33;;;;;;;13.84;54.57;100954.12;4394416;32;32984;-82
2024/04/11 02:24:06;;;;;;;0.10;0.10;;;;;;;13.70;55.21;100950.28;4393162;32;33435;-82
2024/04/11 02:26:36;;;;;;;1.25;0.85;;;;;;;13.62;55.25;100952.34;4393080;32;32548;-82
2024/04/11 02:29:06;;;;;;;1.60;1.50;;;;;;;13.66;55.15;100953.97;4393329;32;32855;-82
2024/04/11 02:31:36;;;;;;;1.35;0.80;;;;;;;13.75;54.92;100959.78;4380769;32;36424;-82
2024/04/11 02:34:03;;;;;;;1.00;0.82;;;;;;;13.72;55.12;100957.28;4393695;32;35475;-82
2024/04/11 02:36:32;;;;;;;1.20;1.10;;;;;;;13.64;55.35;100961.12;4380637;32;32731;-82
2024/04/11 02:39:00;;;;;;;2.78;1.58;;;;;;;13.80;54.67;100951.66;4393142;32;32726;-82
2024/04/11 02:41:29;;;;;;;0.47;0.47;;;;;;;13.76;55.01;100958.00;4413597;32;34805;-82
2024/04/11 02:43:57;;;;;;;0.40;0.40;;;;;;;13.72;54.69;100956.38;4395071;32;33987;-82
2024/04/11 02:46:25;;;;;;;5.47;1.08;;;;;;;13.84;54.65;100958.56;4395101;32;33208;-81
2024/04/11 02:48:53;;;;;;;1.33;1.17;;;;;;;13.95;54.02;100956.34;4393169;32;33398;-81
2024/04/11 02:51:20;;;;;;;0.93;0.85;;;;;;;13.51;55.41;100961.59;4405598;32;34487;-81
2024/04/11 02:53:47;;;;;;;0.57;0.32;;;;;;;13.57;55.42;100965.78;4392837;32;33488;-81
2024/04/11 02:56:13;;;;;;;0.28;0.28;;;;;;;13.72;55.22;100969.66;4393172;32;32607;-81
2024/04/11 02:58:40;;;;;;;0.70;0.70;;;;;;;13.67;55.15;100971.63;4394997;32;111219;-81
2024/04/11 03:01:09;;;;;;;1.85;0.88;;;;;;;13.61;55.21;100978.03;4392885;32;34451;-80
2024/04/11 03:03:37;;;;;;;0.55;0.55;;;;;;;13.50;55.73;100983.75;4392831;32;34997;-81
2024/04/11 03:06:06;;;;;;;1.20;0.82;;;;;;;13.69;55.19;100975.09;4410732;32;35725;-80
2024/04/11 03:08:33;;;;;;;1.48;0.55;;;;;;;13.63;55.40;100980.63;4405796;32;34836;-80
2024/04/11 03:11:03;;;;;;;0.93;0.93;;;;;;;13.70;55.24;100982.13;4393165;32;34209;-80
2024/04/11 03:13:29;;;;;;;3.30;0.52;;;;;;;13.72;55.23;100989.13;4405808;32;33757;-80
2024/04/11 03:15:57;;;;;;;17.92;1.45;;;;;;;13.72;55.29;100990.88;4392843;32;34306;-80
2024/04/11 03:18:24;;;;;;;0.75;0.62;;;;;;;13.85;54.61;100992.16;4393270;32;33422;-80
2024/04/11 03:20:57;;;;;;;0.60;0.60;;;;;;;13.77;54.83;100992.47;4392549;32;34247;-81
2024/04/11 03:23:25;;;;;;;2.45;1.50;;;;;;;13.77;54.54;100995.12;4398695;32;33184;-82
2024/04/11 03:25:52;;;;;;;0.88;0.70;;;;;;;13.72;55.06;100997.09;4404858;32;34013;-82
2024/04/11 03:28:19;;;;;;;0.50;0.50;;;;;;;13.49;55.52;101005.88;4392816;32;33945;-82
2024/04/11 03:30:53;;;;;;;0.73;0.73;;;;;;;13.25;56.44;101001.47;4386142;32;34389;-82
2024/04/11 03:33:20;;;;;;;0.10;0.10;;;;;;;13.51;55.69;100998.72;4392725;32;34960;-82
2024/04/11 03:35:57;;;;;;;0.40;0.40;;;;;;;13.92;54.55;101001.62;4393108;32;33566;-82
2024/04/11 03:38:28;;;;;;;0.60;0.60;;;;;;;13.74;54.75;100994.38;4393384;32;32643;-82
2024/04/11 03:40:58;;;;;;;2.65;1.50;;;;;;;13.64;55.42;100999.16;4398082;32;34192;-81
2024/04/11 03:43:28;;;;;;;1.37;1.17;;;;;;;13.72;55.02;100998.84;4404945;32;33925;-80
2024/04/11 03:46:21;;;;;;;0.50;0.32;;;;;;;13.36;55.80;101015.22;4405654;32;34254;-81
2024/04/11 03:48:51;;;;;;;0.90;0.90;;;;;;;13.34;56.19;101014.41;4397299;32;33072;-81
2024/04/11 03:51:19;;;;;;;0.52;0.43;;;;;;;13.51;55.46;101019.97;4404089;32;33338;-82
2024/04/11 03:53:47;;;;;;;0.70;0.70;;;;;;;13.70;54.75;101016.63;4405246;32;34805;-81
2024/04/11 03:56:18;;;;;;;0.57;0.57;;;;;;;13.68;54.84;101026.44;4367885;32;34121;-81
2024/04/11 03:58:45;;;;;;;0.45;0.45;;;;;;;13.83;54.33;101026.72;4405593;32;34482;-81
2024/04/11 04:01:12;;;;;;;0.60;0.47;;;;;;;13.21;56.55;101036.94;4391925;32;32844;-82
2024/04/11 04:03:40;;;;;;;3.60;1.10;;;;;;;13.30;56.40;101034.00;4392290;32;34409;-82
2024/04/11 04:06:06;;;;;;;0.22;0.17;;;;;;;13.30;56.34;101040.19;4405361;32;34576;-83
2024/04/11 04:08:35;;;;;;;0.40;0.40;;;;;;;13.45;55.73;101044.06;4392488;32;34390;-83
2024/04/11 04:11:03;;;;;;;1.50;0.90;;;;;;;13.38;55.71;101044.31;4379834;32;35916;-83
2024/04/11 04:13:29;;;;;;;1.05;0.80;;;;;;;13.28;55.67;101049.94;4406901;32;33713;-83
2024/04/11 04:15:56;;;;;;;1.35;0.70;;;;;;;13.25;56.09;101049.22;4397843;32;33096;-83
2024/04/11 04:18:23;;;;;;;0.82;0.80;;;;;;;13.07;56.19;101056.84;4392498;32;34314;-83
2024/04/11 04:20:56;;;;;;;3.40;0.20;;;;;;;12.98;56.61;101067.75;4405168;32;34726;-83
2024/04/11 04:23:24;;;;;;;2.17;0.88;;;;;;;13.27;55.79;101063.28;4392389;32;33284;-83
2024/04/11 04:25:59;;;;;;;0.40;0.40;;;;;;;13.27;55.74;101066.78;4407576;32;32766;-83
2024/04/11 04:28:31;;;;;;;1.35;1.25;;;;;;;13.36;55.60;101068.28;4391758;32;34040;-83
2024/04/11 04:31:28;;;;;;;0.28;0.28;;;;;;;13.30;55.57;101068.50;4404813;32;33533;-83
2024/04/11 04:33:57;;;;;;;0.35;0.35;;;;;;;13.18;56.24;101071.50;4404716;32;33891;-83
2024/04/11 04:36:33;;;;;;;2.22;0.95;;;;;;;13.35;55.53;101076.28;4391193;32;34040;-83
2024/04/11 04:39:00;;;;;;;1.70;1.60;;;;;;;13.20;56.09;101072.34;4390796;32;34768;-83
2024/04/11 04:41:28;;;;;;;0.15;0.15;;;;;;;13.39;55.66;101062.88;4404652;32;34204;-84
2024/04/11 04:44:00;;;;;;;0.30;0.30;;;;;;;13.39;55.51;101072.59;4391714;32;33775;-84
2024/04/11 04:46:32;;;;;;;1.65;0.75;;;;;;;13.41;55.58;101074.28;4406718;32;33866;-84
2024/04/11 04:49:00;;;;;;;3.42;0.85;;;;;;;13.30;55.80;101079.09;4391575;32;33517;-84
2024/04/11 04:51:28;;;;;;;0.37;0.37;;;;;;;13.42;55.59;101085.75;4384925;32;32996;-83
2024/04/11 04:53:57;;;;;;;0.70;0.70;;;;;;;13.31;56.20;101086.12;4392474;32;31224;-83
2024/04/11 04:56:23;;;;;;;0.17;0.17;;;;;;;13.49;55.69;101085.50;4393419;32;33077;-84
2024/04/11 04:58:51;;;;;;;0.20;0.20;;;;;;;13.44;55.66;101092.75;4403072;32;32448;-83
2024/04/11 05:01:20;;;;;;;1.75;1.20;;;;;;;13.29;56.48;101088.84;4374716;32;32931;-83
2024/04/11 05:03:48;;;;;;;4.12;0.93;;;;;;;13.75;55.24;101092.50;4388703;32;33235;-83
2024/04/11 05:06:16;;;;;;;0.10;0.10;;;;;;;13.73;55.53;101091.72;4363546;32;33206;-82
2024/04/11 05:08:46;;;;;;;0.45;0.45;;;;;;;13.63;55.81;101092.09;4376944;32;34874;-82
2024/04/11 05:11:13;;;;;;;9.48;1.00;;;;;;;13.73;55.70;101094.37;4380051;32;33372;-82
2024/04/11 05:13:42;;;;;;;0.82;0.77;;;;;;;13.63;55.96;101092.97;4362073;32;34141;-82
2024/04/11 05:16:09;;;;;;;2.33;1.30;;;;;;;13.94;55.39;101095.34;4381888;32;34241;-81
2024/04/11 05:18:37;;;;;;;0.45;0.45;;;;;;;13.98;54.99;101091.66;4364850;32;33799;-83
2024/04/11 05:21:08;;;;;;;1.12;1.10;;;;;;;14.20;54.49;101105.03;4390360;32;34358;-82
2024/04/11 05:23:38;;;;;;;3.15;1.12;;;;;;;14.44;53.94;101097.91;4379618;32;34264;-82
2024/04/11 05:26:13;;;;;;;0.52;0.52;;;;;;;14.53;53.98;101100.22;4390063;32;34522;-82
2024/04/11 05:28:43;;;;;;;0.25;0.25;;;;;;;14.30;54.61;101109.06;4387668;32;34603;-82
2024/04/11 05:31:14;;;;;;;0.73;0.73;;;;;;;14.32;54.44;101098.34;4390708;32;33019;-82
2024/04/11 05:33:41;;;;;;;0.17;0.17;;;;;;;14.23;55.10;101115.50;4366944;32;32144;-82
2024/04/11 05:36:12;;;;;;;0.30;0.30;;;;;;;14.58;54.33;101114.19;4384997;32;32484;-82
2024/04/11 05:38:41;;;;;;;3.30;1.55;;;;;;;14.56;54.44;101108.06;4376745;32;35404;-82
2024/04/11 05:41:09;;;;;;;3.80;1.17;;;;;;;14.71;54.15;101121.66;4381344;32;34041;-82
2024/04/11 05:43:39;;;;;;;0.43;0.43;;;;;;;14.73;54.08;101117.19;4380890;32;33229;-82
2024/04/11 05:46:07;;;;;;;1.23;1.17;;;;;;;14.70;54.16;101127.94;4368964;32;33837;-82
2024/04/11 05:48:33;;;;;;;0.10;0.10;;;;;;;14.98;53.66;101120.56;4378878;32;33316;-81
2024/04/11 05:51:00;;;;;;;0.30;0.30;;;;;;;14.81;53.70;101128.34;4383334;32;34130;-82
2024/04/11 05:53:27;;;;;;;1.00;0.77;;;;;;;15.26;53.15;101120.28;4377517;32;34035;-82
2024/04/11 05:55:53;;;;;;;0.60;0.60;;;;;;;14.97;53.77;101126.81;4390887;32;34415;-82
2024/04/11 05:58:20;;;;;;;0.10;0.10;;;;;;;15.50;52.49;101118.37;4370582;32;32618;-82
2024/04/11 06:00:49;;;;;;;0.10;0.10;;;;;;;15.45;52.55;101120.38;4392186;32;34141;-82
2024/04/11 06:03:16;;;;;;;1.02;0.95;;;;;;;15.59;52.17;101115.31;4396489;32;34312;-82
2024/04/11 06:05:43;;;;;;;1.27;1.12;;;;;;;15.90;51.28;101118.44;4377923;32;35757;-82
2024/04/11 06:08:09;;;;;;;1.50;1.10;;;;;;;16.11;51.26;101118.34;4384031;32;33566;-81
2024/04/11 06:10:36;;;;;;;1.25;0.65;;;;;;;15.54;52.20;101121.78;4390936;32;33764;-84
2024/04/11 06:13:03;;;;;;;0.15;0.15;;;;;;;16.25;51.11;101120.38;4377548;32;32741;-84
2024/04/11 06:15:29;;;;;;;1.17;0.45;;;;;;;16.43;51.26;101117.81;4392186;32;33580;-84
2024/04/11 06:17:57;;;;;;;1.65;1.48;;;;;;;16.53;50.67;101117.31;4365970;32;32646;-85
2024/04/11 06:20:24;;;;;;;0.40;0.40;;;;;;;16.38;51.33;101118.03;4393388;32;34935;-85
2024/04/11 06:22:55;;;;;;;0.50;0.50;;;;;;;16.69;50.69;101121.91;4376695;32;34216;-85
2024/04/11 06:25:22;;;;;;;1.12;0.88;;;;;;;16.61;50.89;101128.44;4390387;32;33530;-85
2024/04/11 06:27:50;;;;;;;1.12;0.60;;;;;;;16.75;50.66;101124.28;4386957;32;33267;-85
2024/04/11 06:30:19;;;;;;;1.55;0.52;;;;;;;16.69;50.35;101128.09;4377335;32;35048;-83
2024/04/11 06:32:49;;;;;;;0.43;0.43;;;;;;;16.95;50.19;101137.53;4377626;32;32910;-83
2024/04/11 06:35:15;;;;;;;1.80;1.52;;;;;;;17.00;50.22;101137.31;4363948;32;32480;-80
2024/04/11 06:37:44;;;;;;;0.40;0.40;;;;;;;17.34;49.61;101133.81;4382452;32;33001;-81
2024/04/11 06:40:14;;;;;;;0.30;0.30;;;;;;;17.33;50.15;101137.44;4379040;32;35259;-81
2024/04/11 06:42:46;;;;;;;0.25;0.20;;;;;;;17.52;49.96;101135.56;4377566;32;32675;-81
2024/04/11 06:45:14;;;;;;;0.20;0.20;;;;;;;17.58;49.55;101137.06;4378133;32;33813;-81
2024/04/11 06:47:42;;;;;;;0.70;0.40;;;;;;;17.96;49.03;101137.75;4384911;32;33604;-81
2024/04/11 06:50:09;;;;;;;0.80;0.80;;;;;;;18.21;48.33;101139.09;4389337;32;34515;-82
2024/04/11 06:52:36;;;;;;;0.50;0.28;;;;;;;18.39;48.28;101146.13;4379757;32;33006;-81
2024/04/11 06:55:05;;;;;;;9.65;1.08;;;;;;;18.40;47.98;101143.34;4375710;32;34266;-81
2024/04/11 06:57:43;;;;;;;0.82;0.82;;;;;;;18.42;47.44;101143.28;4390416;32;32852;-82
2024/04/11 07:00:21;;;;;;;0.45;0.45;;;;;;;18.19;48.38;101141.00;4390240;32;34798;-81
2024/04/11 07:02:49;;;;;;;0.55;0.45;;;;;;;18.48;47.27;101145.63;4382772;32;33719;-82
2024/04/11 07:05:16;;;;;;;11.80;1.30;;;;;;;18.41;46.84;101153.09;4380927;32;34068;-81
2024/04/11 07:07:45;;;;;;;1.60;0.88;;;;;;;18.45;47.08;101152.94;4395480;32;33567;-81
2024/04/11 07:10:15;;;;;;;0.77;0.77;;;;;;;18.01;48.32;101141.03;4388620;32;33948;-81
2024/04/11 07:12:42;;;;;;;0.47;0.47;;;;;;;18.51;47.86;101152.59;4385179;32;33787;-81
2024/04/11 07:15:12;;;;;;;1.02;0.85;;;;;;;18.96;46.44;101146.50;4393327;32;34812;-81
2024/04/11 07:17:45;;;;;;;4.18;1.27;;;;;;;18.84;47.25;101147.19;4396921;32;34759;-81
2024/04/11 07:20:25;;;;;;;2.37;0.85;;;;;;;18.85;47.22;101152.50;4373208;32;33583;-81
2024/04/11 07:22:54;;;;;;;0.45;0.40;;;;;;;18.96;46.53;101146.50;4377574;32;34036;-82
2024/04/11 07:25:25;;;;;;;0.98;0.68;;;;;;;19.06;46.10;101150.38;4383574;32;34447;-84
2024/04/11 07:27:55;;;;;;;1.30;0.83;;;;;;;19.12;46.06;101160.72;4395635;32;33954;-82
2024/04/11 07:30:24;;;;;;;0.62;0.47;;;;;;;18.82;46.84;101163.34;4394688;32;33482;-81
2024/04/11 07:32:54;;;;;;;0.37;0.37;;;;;;;19.19;46.68;101167.47;4394389;32;32095;-81
2024/04/11 07:35:20;;;;;;;0.55;0.50;;;;;;;18.92;46.22;101171.72;4386286;32;35147;-81
2024/04/11 07:37:47;;;;;;;0.85;0.35;;;;;;;18.74;46.58;101175.44;4393712;32;34308;-81
2024/04/11 07:40:32;;;;;;;2.60;0.47;;;;;;;19.34;46.08;101176.44;4371148;32;34822;-82
2024/04/11 07:43:09;;;;;;;2.22;0.50;;;;;;;19.30;45.82;101174.00;4379896;32;32958;-81
2024/04/11 07:45:40;;;;;;;1.23;0.65;;;;;;;19.48;45.32;101172.09;4376605;32;33913;-81
2024/04/11 07:48:08;;;;;;;1.17;1.08;;;;;;;19.27;45.94;101188.44;4385724;32;34753;-82
2024/04/11 07:50:35;;;;;;;3.75;1.95;;;;;;;19.68;45.87;101185.19;4370938;32;34458;-80
2024/04/11 07:53:14;;;;;;;1.10;0.98;;;;;;;19.74;44.77;101184.81;4387489;32;33948;-81
2024/04/11 07:55:44;;;;;;;0.55;0.55;;;;;;;19.88;44.69;101175.94;4396948;32;34359;-81
2024/04/11 07:58:11;;;;;;;10.45;0.57;;;;;;;19.56;45.26;101186.75;4382467;32;34919;-82
2024/04/11 08:00:47;;;;;;;0.37;0.30;;;;;;;19.94;44.62;101183.63;4382971;32;34144;-81
2024/04/11 08:03:17;;;;;;;0.35;0.35;;;;;;;19.63;45.68;101182.78;4385373;32;34088;-81
2024/04/11 08:05:44;;;;;;;0.90;0.90;;;;;;;19.79;44.95;101176.50;4383717;32;34651;-81
2024/04/11 08:08:19;;;;;;;1.23;1.08;;;;;;;20.42;44.44;101179.72;4384751;32;35010;-81
2024/04/11 08:10:48;;;;;;;1.20;1.20;;;;;;;20.63;43.94;101180.22;4385380;32;34146;-81
2024/04/11 08:13:15;;;;;;;0.77;0.77;;;;;;;20.36;44.46;101181.91;4371884;32;34074;-82
2024/04/11 08:15:41;;;;;;;0.88;0.52;;;;;;;20.41;44.63;101190.53;4395419;32;32402;-82
2024/04/11 08:18:08;;;;;;;3.83;1.10;;;;;;;20.10;44.79;101187.09;4390423;32;33516;-81
2024/04/11 08:20:35;;;;;;;0.75;0.75;;;;;;;20.68;44.09;101183.47;4371474;32;32439;-81
2024/04/11 08:23:02;;;;;;;0.82;0.82;;;;;;;20.89;43.62;101185.75;4396722;32;33789;-81
2024/04/11 08:25:29;;;;;;;0.65;0.65;;;;;;;20.18;45.14;101183.94;4376957;32;34836;-82
2024/04/11 08:27:57;;;;;;;0.80;0.80;;;;;;;20.64;44.85;101192.66;4371669;32;34100;-81
2024/04/11 08:30:24;;;;;;;0.40;0.40;;;;;;;20.14;45.49;101199.34;4369578;32;33093;-82
2024/04/11 08:32:51;;;;;;;0.60;0.50;;;;;;;20.36;44.01;101192.63;4383538;32;33108;-81
2024/04/11 08:35:17;;;;;;;6.95;1.27;;;;;;;20.52;43.92;101193.44;4381442;32;34071;-82
2024/04/11 08:37:46;;;;;;;0.68;0.68;;;;;;;20.54;43.88;101190.66;4375285;32;35601;-81
2024/04/11 08:40:13;;;;;;;1.48;1.23;;;;;;;20.84;43.50;101190.50;4383570;32;33321;-81
2024/04/11 08:42:43;;;;;;;1.77;1.12;;;;;;;21.22;43.06;101188.91;4384794;32;32942;-82
2024/04/11 08:45:10;;;;;;;1.37;1.05;;;;;;;21.20;43.15;101196.19;4375740;32;34537;-82
2024/04/11 08:47:37;;;;;;;1.33;0.98;;;;;;;21.39;41.92;101198.53;4385195;32;35114;-82
2024/04/11 08:50:05;;;;;;;2.17;0.90;;;;;;;21.17;43.20;101196.41;4386157;32;34106;-82
2024/04/11 08:52:35;;;;;;;0.47;0.45;;;;;;;21.32;42.99;101193.69;4374061;32;33669;-82
2024/04/11 08:55:03;;;;;;;0.30;0.30;;;;;;;21.35;43.29;101194.34;4383529;32;32972;-82
2024/04/11 08:57:31;;;;;;;0.90;0.50;;;;;;;21.03;44.36;101196.44;4385570;32;34195;-82
2024/04/11 08:59:57;;;;;;;0.37;0.37;;;;;;;21.39;43.17;101203.06;4382880;32;34934;-82
2024/04/11 09:02:24;;;;;;;0.30;0.30;;;;;;;21.63;42.03;101197.84;4380945;32;32123;-82
2024/04/11 09:04:51;;;;;;;1.85;1.15;;;;;;;21.84;41.74;101195.53;4371365;32;33216;-84
2024/04/11 09:07:23;;;;;;;2.60;1.20;;;;;;;22.17;40.91;101187.84;4370986;32;34002;-83
2024/04/11 09:09:51;;;;;;;0.75;0.75;;;;;;;22.52;40.56;101192.56;4376172;32;35763;-83
2024/04/11 09:12:22;;;;;;;0.52;0.20;;;;;;;22.60;40.26;101189.28;4392080;32;33233;-84
2024/04/11 09:14:49;;;;;;;1.52;1.42;;;;;;;22.14;41.08;101195.28;4372336;32;34438;-83
2024/04/11 09:17:16;;;;;;;1.42;1.27;;;;;;;22.13;41.61;101197.09;4373610;32;34447;-84
2024/04/11 09:19:43;;;;;;;8.80;1.50;;;;;;;22.36;41.23;101197.28;4370512;32;35237;-84
2024/04/11 09:22:13;;;;;;;1.15;1.08;;;;;;;22.11;41.37;101193.66;4372732;32;33634;-84
2024/04/11 09:24:44;;;;;;;1.10;0.65;;;;;;;22.49;40.40;101200.84;4371687;32;33618;-84
2024/04/11 09:27:12;;;;;;;0.40;0.40;;;;;;;22.45;40.65;101186.72;4379774;32;34182;-84
2024/04/11 09:29:41;;;;;;;0.25;0.25;;;;;;;22.98;40.60;101190.13;4372381;32;34716;-83
2024/04/11 09:32:11;;;;;;;2.37;1.45;;;;;;;23.06;39.95;101180.59;4383998;32;32583;-84
2024/04/11 09:34:39;;;;;;;0.93;0.93;;;;;;;22.97;40.44;101182.13;4382894;32;34057;-84
2024/04/11 09:37:09;;;;;;;2.85;0.68;;;;;;;22.64;40.48;101180.88;4382719;32;32931;-84
2024/04/11 09:39:46;;;;;;;0.73;0.73;;;;;;;22.64;40.48;101182.72;4396620;32;34778;-84
2024/04/11 09:42:25;;;;;;;7.82;1.95;;;;;;;23.16;39.19;101176.22;4372088;32;35999;-84
2024/04/11 09:44:53;;;;;;;0.52;0.47;;;;;;;22.80;40.07;101186.03;4399306;32;34665;-84
2024/04/11 09:47:26;;;;;;;1.52;0.52;;;;;;;23.10;40.36;101177.56;4370578;32;34061;-84
2024/04/11 09:49:59;;;;;;;0.15;0.15;;;;;;;23.39;39.92;101174.50;4386275;32;34279;-84
2024/04/11 09:52:27;;;;;;;;;;;;;;;23.27;39.56;101175.44;4397232;32;33739;-84
2024/04/11 09:55:03;;;;;;;0.93;0.85;;;;;;;23.51;38.92;101166.38;4386383;32;34331;-84
2024/04/11 09:57:33;;;;;;;1.98;0.98;;;;;;;23.88;37.98;101163.56;4373219;32;34379;-84
2024/04/11 10:00:07;;;;;;;2.50;1.02;;;;;;;23.73;38.59;101165.59;4383611;32;32994;-84
2024/04/11 10:02:35;;;;;;;1.70;0.90;;;;;;;24.25;37.43;101166.91;4368206;32;34752;-83
2024/04/11 10:05:05;;;;;;;0.73;0.70;;;;;;;23.80;39.49;101166.00;4378960;32;33157;-84
2024/04/11 10:07:41;;;;;;;0.55;0.50;;;;;;;24.41;38.15;101163.03;4375233;32;33974;-84
2024/04/11 10:10:19;;;;;;;5.43;2.22;;;;;;;24.71;36.80;101165.09;4375886;32;33833;-83
2024/04/11 10:12:48;;;;;;;0.65;0.65;;;;;;;24.44;37.73;101169.03;4375996;32;33665;-84
2024/04/11 10:15:18;;;;;;;0.65;0.43;;;;;;;24.09;38.91;101166.41;4378125;32;35011;-83
2024/04/11 10:17:49;;;;;;;0.77;0.57;;;;;;;24.82;37.21;101156.09;4377792;32;34050;-84
2024/04/11 10:20:20;;;;;;;0.50;0.50;;;;;;;24.72;37.13;101151.44;4365664;32;32491;-84
2024/04/11 10:22:47;;;;;;;1.05;0.65;;;;;;;24.78;37.66;101155.47;4378994;32;34300;-84
2024/04/11 10:25:17;;;;;;;3.03;1.70;;;;;;;24.82;37.27;101156.09;4391780;32;33987;-83
2024/04/11 10:27:47;;;;;;;1.65;0.50;;;;;;;24.68;38.21;101162.63;4377335;32;32065;-84
2024/04/11 10:30:17;;;;;;;1.20;1.10;;;;;;;24.55;37.96;101168.19;4387496;32;33393;-84
2024/04/11 10:32:46;;;;;;;0.85;0.82;;;;;;;24.26;37.95;101163.25;4391643;32;33918;-84
2024/04/11 10:35:14;;;;;;;0.20;0.20;;;;;;;24.56;37.58;101159.09;4384784;32;34953;-84
2024/04/11 10:37:40;;;;;;;0.82;0.82;;;;;;;25.02;37.31;101166.13;4390217;32;33957;-83
2024/04/11 10:40:15;;;;;;;2.58;1.52;;;;;;;24.82;36.89;101146.13;4391943;32;34711;-84
2024/04/11 10:43:11;;;;;;;0.20;0.20;;;;;;;24.97;36.78;101152.13;4377914;32;34715;-84
2024/04/11 10:45:34;;;;;;;1.33;0.85;;;;;;;25.34;36.38;101149.94;4389264;32;34069;-84
2024/04/11 10:48:08;;;;;;;1.02;0.70;;;;;;;25.45;36.58;101146.34;4389887;32;33903;-84
2024/04/11 10:50:35;;;;;;;31.33;2.05;;;;;;;25.44;36.51;101150.00;4379288;32;34275;-84
2024/04/11 10:53:03;;;;;;;1.37;1.20;;;;;;;25.85;34.84;101148.34;4365162;32;33686;-84
2024/04/11 10:55:29;;;;;;;0.93;0.75;;;;;;;25.66;35.49;101144.50;4380246;32;34669;-84
2024/04/11 10:58:09;;;;;;;2.40;1.90;;;;;;;25.36;36.12;101142.56;4389630;32;33311;-84
2024/04/11 11:03:47;;;;;;;6.70;1.35;;;;;;;26.05;35.17;101140.19;4386090;32;33875;-84
2024/04/11 11:06:25;;;;;;;4.87;1.77;;;;;;;26.18;35.09;101150.81;4371221;32;32613;-84
2024/04/11 11:08:55;;;;;;;0.68;0.37;;;;;;;25.83;34.87;101144.91;4383384;32;33970;-84
2024/04/11 11:11:25;;;;;;;1.00;0.95;;;;;;;26.28;35.22;101140.88;4374778;32;33314;-84
2024/04/11 11:13:54;;;;;;;1.55;0.65;;;;;;;26.51;33.75;101143.44;4397582;32;33678;-84
2024/04/11 11:16:22;;;;;;;1.95;1.00;;;;;;;26.36;33.77;101137.50;4392708;32;34089;-84
2024/04/11 11:18:53;;;;;;;1.25;0.98;;;;;;;26.11;34.91;101136.13;4402375;32;33580;-84
2024/04/11 11:21:22;;;;;;;1.23;1.12;;;;;;;25.89;34.99;101130.88;4397508;32;33481;-85
2024/04/11 11:24:06;;;;;;;10.38;1.10;;;;;;;25.85;35.04;101126.72;4361756;32;33112;-84
2024/04/11 11:26:37;;;;;;;1.35;1.25;;;;;;;26.08;34.76;101128.25;4376996;32;32760;-85
2024/04/11 11:29:05;;;;;;;6.32;2.03;;;;;;;26.34;34.62;101135.91;4386532;32;34745;-85
2024/04/11 11:31:31;;;;;;;0.80;0.57;;;;;;;26.36;35.07;101128.53;4400226;32;34612;-85
2024/04/11 11:33:58;;;;;;;2.67;1.95;;;;;;;26.02;35.25;101123.41;4376551;32;33464;-86
2024/04/11 11:36:25;;;;;;;1.08;1.08;;;;;;;26.21;35.00;101128.91;4371583;32;32632;-86